Time;durP1;ratioP1;P1;durP2;ratioP2;P2;SDS_P1;SDS_P2;PMS_P1;PMS_P2;Temp;Humidity;BMP_temperature;BMP_pressure;BME280_temperature;BME280_humidity;BME280_pressure;Samples;Min_cycle;Max_cycle;Signal;HPM_P1;HPM_P2
2022/07/29 00:00:37;;;;;;;3.10;1.52;;;;;;;10.54;92.79;101976.19;4993476;28;20324;-53
2022/07/29 00:03:03;;;;;;;1.88;1.15;;;;;;;10.53;93.51;101990.47;4992951;28;20537;-53
2022/07/29 00:05:28;;;;;;;1.70;1.27;;;;;;;10.40;93.76;101979.09;4993109;28;20514;-53
2022/07/29 00:07:54;;;;;;;1.50;1.00;;;;;;;10.47;94.52;101980.78;4993379;28;20188;-52
2022/07/29 00:10:20;;;;;;;1.98;1.23;;;;;;;10.45;94.66;101979.94;4993065;28;20621;-53
2022/07/29 00:12:46;;;;;;;1.58;1.17;;;;;;;10.51;94.80;101981.59;4992238;28;20173;-52
2022/07/29 00:15:11;;;;;;;1.50;1.10;;;;;;;10.64;94.53;101985.78;4992740;28;20653;-52
2022/07/29 00:17:37;;;;;;;3.15;1.70;;;;;;;10.56;93.29;101982.41;4992805;28;20208;-53
2022/07/29 00:20:03;;;;;;;1.65;1.25;;;;;;;10.59;93.17;101982.31;4992664;28;20170;-53
2022/07/29 00:22:29;;;;;;;1.17;1.08;;;;;;;10.60;92.94;101978.72;4992060;28;20209;-54
2022/07/29 00:24:54;;;;;;;2.58;1.33;;;;;;;10.46;92.46;101984.34;4992358;28;20779;-53
2022/07/29 00:27:20;;;;;;;1.38;1.27;;;;;;;10.47;92.64;101979.88;4983541;28;20653;-50
2022/07/29 00:29:45;;;;;;;3.00;1.13;;;;;;;10.36;92.28;101988.13;4973212;28;20577;-53
2022/07/29 00:32:11;;;;;;;3.88;1.55;;;;;;;10.29;93.18;101979.31;4971653;28;20193;-52
2022/07/29 00:37:21;;;;;;;2.20;1.25;;;;;;;10.34;93.91;101981.03;4973168;28;20549;-55
2022/07/29 00:39:46;;;;;;;2.35;1.30;;;;;;;10.46;93.97;101984.34;4973052;28;20174;-52
2022/07/29 00:42:12;;;;;;;1.67;1.00;;;;;;;10.44;93.31;101978.16;4972010;28;20209;-52
2022/07/29 00:44:38;;;;;;;1.65;1.20;;;;;;;10.47;92.79;101974.53;4972330;28;20174;-53
2022/07/29 00:47:04;;;;;;;1.58;0.93;;;;;;;10.34;92.05;101978.34;4973099;28;20177;-53
2022/07/29 00:49:30;;;;;;;1.50;1.40;;;;;;;10.13;92.24;101984.97;4973219;28;20206;-54
2022/07/29 00:51:55;;;;;;;3.35;1.70;;;;;;;10.02;93.20;101988.69;4972838;28;20190;-55
2022/07/29 00:54:21;;;;;;;1.65;1.20;;;;;;;10.11;93.70;101980.50;4972672;28;20193;-55
2022/07/29 00:56:46;;;;;;;1.05;1.05;;;;;;;10.16;93.75;101979.53;4972946;28;20501;-54
2022/07/29 00:59:11;;;;;;;4.40;1.33;;;;;;;10.05;93.14;101985.09;4972668;28;20166;-55
2022/07/29 01:01:37;;;;;;;3.40;1.48;;;;;;;9.82;93.23;101983.69;4972826;28;20202;-53
2022/07/29 01:04:03;;;;;;;2.08;1.58;;;;;;;9.82;94.29;101988.16;4970947;28;20541;-51
2022/07/29 01:06:28;;;;;;;2.45;1.30;;;;;;;9.73;94.71;101991.88;4973095;28;20618;-54
2022/07/29 01:08:54;;;;;;;1.80;1.38;;;;;;;9.71;95.36;102004.41;4972860;28;20174;-54
2022/07/29 01:11:20;;;;;;;1.17;1.08;;;;;;;9.80;96.00;101984.63;4972468;28;20280;-51
2022/07/29 01:13:47;;;;;;;1.60;1.50;;;;;;;9.88;95.65;101988.94;4972140;28;20177;-51
2022/07/29 01:16:30;;;;;;;1.98;1.25;;;;;;;9.90;95.36;101981.78;4972748;28;20319;-53
2022/07/29 01:19:20;;;;;;;1.92;1.40;;;;;;;10.02;94.97;101988.69;4972504;28;20170;-53
2022/07/29 01:21:54;;;;;;;2.50;1.10;;;;;;;10.00;94.36;101985.16;4972098;28;20289;-50
2022/07/29 01:24:41;;;;;;;1.60;1.20;;;;;;;9.88;94.06;101980.91;4972053;28;20174;-48
2022/07/29 01:27:31;;;;;;;2.38;1.55;;;;;;;9.88;93.82;101983.59;4972621;28;20186;-49
2022/07/29 01:29:59;;;;;;;2.05;1.27;;;;;;;9.77;93.97;101988.22;4972191;28;20538;-50
2022/07/29 01:32:29;;;;;;;1.20;1.10;;;;;;;9.69;94.17;101979.44;4972711;28;20249;-50
2022/07/29 01:35:01;;;;;;;1.05;1.02;;;;;;;9.82;94.17;101990.84;4972675;28;20213;-51
2022/07/29 01:37:36;;;;;;;2.15;1.42;;;;;;;9.62;94.07;101985.78;4972438;28;20166;-50
2022/07/29 01:40:04;;;;;;;1.40;1.30;;;;;;;9.70;94.60;101982.09;4972514;28;20176;-50
2022/07/29 01:42:44;;;;;;;2.72;1.30;;;;;;;9.74;94.96;101984.72;4972318;28;20186;-50
2022/07/29 01:45:16;;;;;;;3.28;1.30;;;;;;;9.75;94.70;101978.44;4972488;28;20618;-49
2022/07/29 01:47:59;;;;;;;1.92;1.30;;;;;;;9.59;95.03;101980.50;4971415;28;20304;-49
2022/07/29 01:50:34;;;;;;;4.47;1.70;;;;;;;9.61;95.18;101989.38;4972048;28;20682;-47
2022/07/29 01:53:04;;;;;;;2.97;1.52;;;;;;;9.63;96.01;101975.06;4972528;28;20594;-48
2022/07/29 01:55:34;;;;;;;1.98;1.55;;;;;;;9.60;96.31;101967.09;4971520;28;20602;-48
2022/07/29 01:58:02;;;;;;;3.08;1.27;;;;;;;9.66;96.37;101974.13;4972150;28;20166;-48
2022/07/29 02:00:31;;;;;;;2.60;1.40;;;;;;;9.74;96.13;101969.53;4972241;28;20272;-46
2022/07/29 02:02:59;;;;;;;2.22;1.50;;;;;;;9.68;95.31;101966.97;4972052;28;20182;-48
2022/07/29 02:05:28;;;;;;;1.70;1.58;;;;;;;9.61;95.06;101960.81;4972479;28;20170;-46
2022/07/29 02:07:57;;;;;;;1.88;1.40;;;;;;;9.62;95.09;101965.28;4972107;28;20166;-48
2022/07/29 02:10:26;;;;;;;1.17;1.10;;;;;;;9.51;94.80;101969.03;4970878;28;20745;-47
2022/07/29 02:12:54;;;;;;;1.80;1.58;;;;;;;9.64;95.10;101973.28;4970670;28;20181;-48
2022/07/29 02:15:22;;;;;;;1.48;1.35;;;;;;;9.64;94.94;101959.88;4970900;28;20166;-47
2022/07/29 02:17:56;;;;;;;1.92;1.20;;;;;;;9.68;94.70;101961.59;4972158;28;20174;-48
2022/07/29 02:20:23;;;;;;;3.08;1.60;;;;;;;9.48;94.50;101952.09;4971714;28;20190;-46
2022/07/29 02:22:51;;;;;;;2.30;1.40;;;;;;;9.33;94.97;101967.50;4971954;28;20175;-47
2022/07/29 02:25:18;;;;;;;4.97;1.58;;;;;;;9.25;95.93;101956.94;4972087;28;20174;-47
2022/07/29 02:27:45;;;;;;;1.83;1.50;;;;;;;9.15;96.45;101960.66;4971923;28;20186;-47
2022/07/29 02:30:12;;;;;;;2.92;1.98;;;;;;;9.21;97.32;101956.09;4971937;28;20657;-47
2022/07/29 02:32:41;;;;;;;1.92;1.40;;;;;;;9.16;96.95;101946.34;4971833;28;20174;-46
2022/07/29 02:35:09;;;;;;;2.35;1.70;;;;;;;9.10;97.40;101954.50;4974460;28;20174;-47
2022/07/29 02:37:36;;;;;;;2.35;1.52;;;;;;;9.12;97.78;101956.22;4974720;28;20193;-48
2022/07/29 02:40:04;;;;;;;2.70;1.60;;;;;;;9.09;97.76;101950.91;4975676;28;20174;-47
2022/07/29 02:42:31;;;;;;;2.65;1.40;;;;;;;9.22;97.91;101944.47;4975802;28;20162;-47
2022/07/29 02:44:57;;;;;;;1.52;1.40;;;;;;;9.24;97.71;101950.69;4975009;28;20186;-46
2022/07/29 02:47:57;;;;;;;1.75;1.23;;;;;;;9.05;97.47;101960.78;4975626;28;20174;-44
2022/07/29 02:50:32;;;;;;;2.47;1.40;;;;;;;8.99;98.01;101955.50;4974040;28;20241;-49
2022/07/29 02:53:07;;;;;;;2.08;1.40;;;;;;;9.10;98.17;101951.81;4975524;28;20244;-44
2022/07/29 02:55:55;;;;;;;2.67;1.55;;;;;;;9.16;98.26;101951.72;4975434;28;20170;-47
2022/07/29 02:58:28;;;;;;;1.50;1.40;;;;;;;9.25;97.92;101941.78;4973608;28;20170;-46
2022/07/29 03:00:55;;;;;;;2.00;1.27;;;;;;;9.32;97.48;101952.38;4974763;28;20296;-47
2022/07/29 03:03:22;;;;;;;1.88;1.30;;;;;;;9.36;97.17;101951.41;4975253;28;20314;-46
2022/07/29 03:05:47;;;;;;;1.52;1.42;;;;;;;9.17;96.58;101954.38;4975258;28;20167;-45
2022/07/29 03:08:15;;;;;;;2.60;1.70;;;;;;;9.04;96.72;101952.78;4975343;28;20177;-46
2022/07/29 03:10:46;;;;;;;1.67;1.45;;;;;;;9.12;97.36;101955.31;4974811;28;20574;-46
2022/07/29 03:13:13;;;;;;;1.40;1.30;;;;;;;9.23;97.23;101961.44;4974632;28;20212;-46
2022/07/29 03:15:38;;;;;;;1.63;1.50;;;;;;;9.21;96.96;101949.88;4974894;28;20166;-48
2022/07/29 03:18:06;;;;;;;1.40;1.30;;;;;;;9.14;96.80;101942.81;4974628;28;20674;-47
2022/07/29 03:20:32;;;;;;;1.70;1.60;;;;;;;9.19;96.94;101957.91;4974489;28;20551;-46
2022/07/29 03:22:57;;;;;;;2.67;1.55;;;;;;;9.20;96.72;101945.41;4974552;28;20190;-46
2022/07/29 03:25:23;;;;;;;4.53;1.58;;;;;;;9.01;97.18;101951.03;4973366;28;20660;-45
2022/07/29 03:27:48;;;;;;;2.42;1.50;;;;;;;8.98;97.53;101935.00;4974609;28;20193;-44
2022/07/29 03:30:15;;;;;;;2.55;1.67;;;;;;;8.93;98.19;101947.56;4974373;28;20525;-44
2022/07/29 03:32:41;;;;;;;2.17;1.98;;;;;;;9.11;98.79;101937.53;4974385;28;20561;-47
2022/07/29 03:35:08;;;;;;;2.05;1.40;;;;;;;9.24;98.29;101936.44;4974234;28;20345;-45
2022/07/29 03:37:33;;;;;;;2.72;1.60;;;;;;;9.30;98.05;101947.06;4974252;28;20175;-45
2022/07/29 03:40:02;;;;;;;2.83;1.60;;;;;;;9.35;97.57;101941.63;4974292;28;20261;-48
2022/07/29 03:42:33;;;;;;;2.65;1.50;;;;;;;9.31;97.27;101951.47;4974211;28;20202;-45
2022/07/29 03:45:02;;;;;;;2.00;1.55;;;;;;;9.35;97.12;101939.84;4974466;28;20170;-44
2022/07/29 03:47:29;;;;;;;2.03;1.73;;;;;;;9.42;97.11;101932.59;4972060;28;20182;-47
2022/07/29 03:50:00;;;;;;;3.58;1.85;;;;;;;9.34;97.33;101935.41;4973944;28;20739;-45
2022/07/29 03:52:26;;;;;;;1.80;1.70;;;;;;;9.41;97.86;101925.50;4974165;28;20173;-46
2022/07/29 03:54:52;;;;;;;1.98;1.83;;;;;;;9.53;98.30;101929.75;4973624;28;20551;-46
2022/07/29 03:57:23;;;;;;;1.83;1.70;;;;;;;9.63;97.93;101931.38;4973944;28;20563;-47
2022/07/29 03:59:51;;;;;;;3.28;1.98;;;;;;;9.57;98.02;101928.78;4973574;28;20200;-46
2022/07/29 04:02:16;;;;;;;2.65;1.77;;;;;;;9.61;98.43;101922.50;4973076;28;20202;-48
2022/07/29 04:04:42;;;;;;;2.90;1.70;;;;;;;9.75;98.67;101925.84;4971727;28;20186;-49
2022/07/29 04:07:12;;;;;;;3.72;1.90;;;;;;;9.84;98.71;101927.47;4972589;28;20476;-47
2022/07/29 04:09:37;;;;;;;3.72;2.30;;;;;;;9.97;98.51;101920.06;4973098;28;20666;-46
2022/07/29 04:12:03;;;;;;;1.52;1.42;;;;;;;10.03;98.09;101926.19;4973255;28;20201;-47
2022/07/29 04:14:29;;;;;;;2.85;1.63;;;;;;;10.10;98.01;101924.28;4972751;28;20197;-49
2022/07/29 04:16:55;;;;;;;1.92;1.67;;;;;;;10.11;97.86;101921.59;4973253;28;20558;-49
2022/07/29 04:19:20;;;;;;;2.85;1.40;;;;;;;10.19;97.76;101926.81;4972823;28;20198;-50
2022/07/29 04:21:46;;;;;;;3.25;1.65;;;;;;;10.15;97.46;101924.22;4972766;28;20714;-49
2022/07/29 04:24:11;;;;;;;2.35;1.95;;;;;;;10.16;97.46;101925.97;4972617;28;20184;-48
2022/07/29 04:26:36;;;;;;;4.13;2.90;;;;;;;10.19;97.78;101929.50;4975841;28;20185;-49
2022/07/29 04:29:02;;;;;;;2.47;1.65;;;;;;;10.33;97.79;101917.66;4990890;28;20173;-49
2022/07/29 04:31:27;;;;;;;2.35;1.70;;;;;;;10.35;97.90;101923.88;4991564;28;20205;-50
2022/07/29 04:33:53;;;;;;;3.13;2.05;;;;;;;10.38;98.17;101926.47;4992374;28;20247;-48
2022/07/29 04:36:18;;;;;;;1.90;1.77;;;;;;;10.48;98.20;101926.25;4991556;28;20178;-49
2022/07/29 04:38:44;;;;;;;2.67;1.73;;;;;;;10.51;98.26;101923.50;4992492;28;20217;-50
2022/07/29 04:41:09;;;;;;;2.53;1.80;;;;;;;10.49;98.73;101920.00;4992633;28;20198;-48
2022/07/29 04:43:35;;;;;;;3.28;1.88;;;;;;;10.55;99.36;101923.47;4991872;28;20178;-50
2022/07/29 04:46:02;;;;;;;1.98;1.77;;;;;;;10.66;99.32;101921.44;4992911;28;20752;-49
2022/07/29 04:48:28;;;;;;;2.60;2.00;;;;;;;10.65;99.43;101925.94;4992568;28;20641;-48
2022/07/29 04:50:53;;;;;;;2.10;1.90;;;;;;;10.68;99.73;101909.78;4992295;28;20248;-48
2022/07/29 04:53:19;;;;;;;3.15;2.30;;;;;;;10.74;100.00;101918.63;4992349;28;20177;-49
2022/07/29 04:55:45;;;;;;;3.60;1.92;;;;;;;10.88;99.97;101933.47;4992149;28;20170;-48
2022/07/29 04:58:11;;;;;;;8.07;2.20;;;;;;;10.87;99.62;101930.84;4992035;28;20236;-47
2022/07/29 05:00:36;;;;;;;3.05;2.13;;;;;;;10.99;99.73;101925.19;4992291;28;20209;-49
2022/07/29 05:03:03;;;;;;;6.03;2.33;;;;;;;11.04;99.47;101933.13;4991310;28;20224;-51
2022/07/29 05:05:28;;;;;;;2.75;1.70;;;;;;;11.11;99.21;101929.41;4991956;28;20234;-50
2022/07/29 05:07:55;;;;;;;4.38;1.70;;;;;;;11.20;99.25;101931.88;4992012;28;20701;-48
2022/07/29 05:10:20;;;;;;;4.78;2.17;;;;;;;11.20;99.03;101925.63;4991795;28;20209;-47
2022/07/29 05:12:46;;;;;;;3.00;1.90;;;;;;;11.20;99.05;101929.19;4991852;28;20228;-49
2022/07/29 05:15:11;;;;;;;2.92;2.00;;;;;;;11.24;99.29;101929.97;4991055;28;20170;-49
2022/07/29 05:17:37;;;;;;;7.28;2.53;;;;;;;11.30;99.56;101917.34;4991846;28;20169;-46
2022/07/29 05:20:03;;;;;;;5.65;2.03;;;;;;;11.38;99.73;101914.44;4991446;28;20165;-48
2022/07/29 05:22:29;;;;;;;2.35;2.10;;;;;;;11.49;99.88;101919.56;4991937;28;20177;-47
2022/07/29 05:24:54;;;;;;;3.70;2.30;;;;;;;11.61;99.84;101921.94;4991473;28;20184;-47
2022/07/29 05:27:20;;;;;;;3.47;1.80;;;;;;;11.77;99.79;101921.56;4991205;28;20196;-47
2022/07/29 05:29:45;;;;;;;6.22;2.00;;;;;;;11.83;99.41;101914.22;4991998;28;20271;-47
2022/07/29 05:32:12;;;;;;;3.00;2.08;;;;;;;12.00;99.12;101919.16;4989833;28;20216;-47
2022/07/29 05:34:37;;;;;;;4.88;2.10;;;;;;;12.16;98.68;101914.28;4991424;28;20181;-47
2022/07/29 05:37:02;;;;;;;4.93;2.28;;;;;;;12.27;98.25;101920.22;4991660;28;20185;-47
2022/07/29 05:39:28;;;;;;;2.67;2.17;;;;;;;12.40;97.48;101934.22;4991649;28;20197;-47
2022/07/29 05:41:53;;;;;;;4.60;2.50;;;;;;;12.53;96.99;101921.31;4990862;28;20236;-47
2022/07/29 05:44:19;;;;;;;3.97;2.17;;;;;;;12.69;96.77;101917.22;4990242;28;20208;-49
2022/07/29 05:46:44;;;;;;;6.97;2.28;;;;;;;12.90;96.23;101922.88;4991463;28;20161;-46
2022/07/29 05:49:10;;;;;;;5.15;2.10;;;;;;;13.07;95.76;101925.06;4991359;28;20173;-48
2022/07/29 05:51:35;;;;;;;4.57;2.10;;;;;;;13.17;95.01;101930.09;4991267;28;20197;-47
2022/07/29 05:54:01;;;;;;;4.07;2.10;;;;;;;13.38;94.68;101908.84;4989718;28;20554;-48
2022/07/29 05:56:27;;;;;;;3.90;2.40;;;;;;;13.58;93.37;101918.97;4989464;28;20185;-46
2022/07/29 05:58:52;;;;;;;5.53;2.35;;;;;;;13.68;92.38;101909.63;4991253;28;20285;-47
2022/07/29 06:01:18;;;;;;;8.15;2.50;;;;;;;13.81;91.57;101910.09;4991021;28;20238;-48
2022/07/29 06:03:44;;;;;;;3.50;2.50;;;;;;;13.98;91.06;101913.09;4990770;28;20192;-48
2022/07/29 06:06:09;;;;;;;6.82;2.38;;;;;;;14.14;90.26;101910.72;4991164;28;20190;-47
2022/07/29 06:08:36;;;;;;;6.03;3.05;;;;;;;14.37;89.34;101909.03;4990858;28;20236;-46
2022/07/29 06:11:03;;;;;;;7.90;2.70;;;;;;;14.54;87.93;101905.69;4994307;28;20584;-48
2022/07/29 06:13:29;;;;;;;4.25;2.55;;;;;;;14.75;87.26;101914.81;4993897;28;20232;-48
2022/07/29 06:15:55;;;;;;;5.50;3.03;;;;;;;14.81;85.81;101920.88;4994511;28;20199;-49
2022/07/29 06:18:23;;;;;;;6.65;2.85;;;;;;;14.91;85.48;101910.63;4994687;28;20618;-47
2022/07/29 06:20:50;;;;;;;4.18;2.45;;;;;;;15.08;85.87;101909.91;4990800;28;20563;-48
2022/07/29 06:23:16;;;;;;;4.78;2.85;;;;;;;15.24;85.48;101904.81;4989485;28;20691;-47
2022/07/29 06:25:41;;;;;;;5.47;2.47;;;;;;;15.35;85.77;101909.75;4994133;28;20201;-46
2022/07/29 06:28:07;;;;;;;6.88;2.83;;;;;;;15.36;85.35;101909.69;4994224;28;20204;-47
2022/07/29 06:30:32;;;;;;;6.65;2.92;;;;;;;15.45;84.38;101903.03;4993866;28;20677;-46
2022/07/29 06:32:58;;;;;;;8.00;2.60;;;;;;;15.44;83.84;101914.78;4993986;28;20628;-46
2022/07/29 06:35:23;;;;;;;5.00;3.08;;;;;;;15.57;83.15;101904.38;4993997;28;20165;-47
2022/07/29 06:37:49;;;;;;;5.78;3.42;;;;;;;15.58;82.59;101906.09;4994571;28;20201;-47
2022/07/29 06:42:58;;;;;;;6.50;2.70;;;;;;;15.59;82.31;101907.84;4974453;28;20182;-46
2022/07/29 06:45:24;;;;;;;3.08;2.65;;;;;;;15.70;82.19;101910.09;4974572;28;20166;-47
2022/07/29 06:47:50;;;;;;;6.35;2.85;;;;;;;15.82;81.77;101917.72;4974673;28;20205;-46
2022/07/29 06:50:15;;;;;;;5.57;2.60;;;;;;;16.04;81.13;101921.25;4974619;28;20217;-45
2022/07/29 06:52:41;;;;;;;8.32;2.75;;;;;;;16.27;80.21;101924.78;4974148;28;20557;-46
2022/07/29 06:55:07;;;;;;;7.57;2.80;;;;;;;16.56;79.02;101917.19;4973979;28;20175;-47
2022/07/29 06:57:33;;;;;;;5.82;2.30;;;;;;;16.87;79.27;101911.22;4974620;28;20225;-47
2022/07/29 06:59:59;;;;;;;4.93;2.47;;;;;;;16.86;77.52;101917.63;4974414;28;20861;-47
2022/07/29 07:02:24;;;;;;;5.68;2.08;;;;;;;16.81;74.71;101911.53;4974641;28;20182;-48
2022/07/29 07:04:50;;;;;;;5.45;2.20;;;;;;;17.02;73.42;101920.47;4973894;28;20166;-47
2022/07/29 07:07:15;;;;;;;7.95;2.13;;;;;;;17.45;72.26;101907.53;4974285;28;20269;-50
2022/07/29 07:09:41;;;;;;;4.47;1.80;;;;;;;17.82;69.46;101905.69;4974292;28;20236;-46
2022/07/29 07:12:07;;;;;;;3.33;1.85;;;;;;;18.11;68.91;101906.91;4974452;28;20205;-48
2022/07/29 07:14:32;;;;;;;7.38;2.15;;;;;;;18.45;68.51;101908.66;4972396;28;20174;-47
2022/07/29 07:17:00;;;;;;;5.82;2.10;;;;;;;18.68;67.63;101893.84;4979028;28;20645;-48
2022/07/29 07:19:26;;;;;;;4.72;1.75;;;;;;;18.80;66.32;101899.59;4975249;28;20178;-45
2022/07/29 07:21:53;;;;;;;4.20;2.10;;;;;;;19.10;66.73;101899.69;4974517;28;20241;-46
2022/07/29 07:24:18;;;;;;;7.00;2.13;;;;;;;19.25;66.30;101887.94;4973822;28;20170;-48
2022/07/29 07:26:44;;;;;;;7.43;1.80;;;;;;;18.93;66.11;101895.22;4972912;28;20232;-46
2022/07/29 07:29:10;;;;;;;2.38;1.80;;;;;;;18.85;64.86;101895.66;4974434;28;20187;-45
2022/07/29 07:31:36;;;;;;;3.47;1.80;;;;;;;18.71;64.77;101888.22;4973830;28;20210;-45
2022/07/29 07:34:02;;;;;;;5.55;1.90;;;;;;;18.88;64.55;101894.59;4972765;28;20182;-46
2022/07/29 07:36:27;;;;;;;4.78;1.70;;;;;;;18.87;64.74;101888.31;4973925;28;20212;-48
2022/07/29 07:38:52;;;;;;;5.88;1.67;;;;;;;19.03;65.87;101892.88;4974130;28;20285;-49
2022/07/29 07:41:18;;;;;;;7.45;1.60;;;;;;;19.48;62.54;101885.72;4973983;28;20202;-46
2022/07/29 07:43:43;;;;;;;5.10;1.63;;;;;;;19.62;63.35;101887.63;4973851;28;20173;-46
2022/07/29 07:46:09;;;;;;;8.50;1.83;;;;;;;19.83;61.74;101877.34;4974301;28;20174;-50
2022/07/29 07:48:35;;;;;;;3.75;1.75;;;;;;;19.92;61.48;101884.97;4973688;28;20186;-46
2022/07/29 07:51:01;;;;;;;4.18;1.70;;;;;;;19.72;60.51;101884.31;4973929;28;20296;-44
2022/07/29 07:53:26;;;;;;;3.25;1.58;;;;;;;19.92;60.48;101884.97;4974097;28;20217;-43
2022/07/29 07:55:52;;;;;;;4.57;1.92;;;;;;;20.08;62.99;101884.88;4973891;28;20163;-46
2022/07/29 07:58:17;;;;;;;6.30;1.67;;;;;;;20.65;60.08;101884.94;4972837;28;20253;-47
2022/07/29 08:00:43;;;;;;;6.00;1.60;;;;;;;20.34;59.39;101881.41;4973676;28;20209;-45
2022/07/29 08:03:12;;;;;;;4.28;1.80;;;;;;;20.52;59.34;101873.94;4973593;28;20256;-45
2022/07/29 08:05:38;;;;;;;4.00;1.65;;;;;;;20.98;57.71;101873.72;4973605;28;20171;-46
2022/07/29 08:08:03;;;;;;;5.82;1.67;;;;;;;21.19;58.43;101873.28;4973279;28;20193;-46
2022/07/29 08:13:13;;;;;;;4.55;1.80;;;;;;;21.25;55.61;101872.00;4973393;28;20702;-46
2022/07/29 08:15:40;;;;;;;4.43;1.48;;;;;;;21.55;55.98;101861.78;4973416;28;20195;-46
2022/07/29 08:18:06;;;;;;;3.58;1.63;;;;;;;21.27;57.53;101865.44;4973788;28;20229;-46
2022/07/29 08:20:33;;;;;;;2.92;1.58;;;;;;;21.81;55.45;101861.84;4972302;28;20673;-45
2022/07/29 08:22:59;;;;;;;4.03;1.70;;;;;;;22.25;54.09;101866.06;4968762;28;20646;-47
2022/07/29 08:25:25;;;;;;;4.20;1.30;;;;;;;22.26;52.86;101861.47;4972095;28;20186;-48
2022/07/29 08:27:50;;;;;;;5.47;2.08;;;;;;;21.89;53.52;101866.78;4973301;28;20204;-44
2022/07/29 08:30:16;;;;;;;6.13;1.70;;;;;;;22.06;53.27;101857.38;4973254;28;20214;-46
2022/07/29 08:32:41;;;;;;;4.45;1.80;;;;;;;21.78;52.77;101856.59;4971463;28;20216;-48
2022/07/29 08:35:07;;;;;;;2.75;1.60;;;;;;;21.97;52.61;101858.91;4972620;28;20265;-46
2022/07/29 08:37:32;;;;;;;3.80;1.55;;;;;;;21.54;54.14;101860.03;4973355;28;20180;-45
2022/07/29 08:39:58;;;;;;;4.82;1.90;;;;;;;21.38;53.89;101856.56;4972919;28;20241;-45
2022/07/29 08:42:24;;;;;;;3.65;1.92;;;;;;;21.96;54.65;101860.78;4971519;28;20166;-49
2022/07/29 08:44:50;;;;;;;3.05;2.03;;;;;;;22.19;53.86;101858.25;4971602;28;20189;-46
2022/07/29 08:47:16;;;;;;;6.38;1.83;;;;;;;22.00;53.52;101858.72;4972147;28;20166;-51
2022/07/29 08:49:42;;;;;;;6.95;1.83;;;;;;;22.14;53.75;101850.41;4972786;28;20602;-47
2022/07/29 08:52:10;;;;;;;3.97;1.88;;;;;;;21.82;54.96;101852.66;4969768;28;20201;-47
2022/07/29 08:54:36;;;;;;;8.25;2.10;;;;;;;21.24;56.03;101853.91;4970821;28;20745;-48
2022/07/29 08:57:03;;;;;;;1.95;1.67;;;;;;;21.52;56.25;101851.09;4970448;28;20228;-47
2022/07/29 08:59:31;;;;;;;4.53;1.90;;;;;;;21.79;55.37;101856.47;4970841;28;20312;-46
2022/07/29 09:01:59;;;;;;;3.38;1.67;;;;;;;22.03;55.13;101850.28;4971497;28;20198;-46
2022/07/29 09:04:29;;;;;;;5.20;2.03;;;;;;;22.05;54.10;101845.59;4971449;28;20584;-45
2022/07/29 09:06:58;;;;;;;2.65;1.63;;;;;;;22.14;53.42;101852.28;4972624;28;20204;-48
2022/07/29 09:09:23;;;;;;;3.75;2.30;;;;;;;22.57;52.36;101841.91;4972253;28;20186;-49
2022/07/29 09:11:49;;;;;;;5.25;1.98;;;;;;;22.91;53.39;101852.19;4971758;28;20321;-45
2022/07/29 09:14:15;;;;;;;2.60;1.80;;;;;;;22.45;53.59;101850.97;4970423;28;20178;-46
2022/07/29 09:16:58;;;;;;;4.78;1.92;;;;;;;22.58;53.20;101843.63;4970005;28;20197;-47
2022/07/29 09:19:27;;;;;;;4.80;1.77;;;;;;;22.89;53.76;101837.78;4973090;28;20189;-48
2022/07/29 09:21:57;;;;;;;2.92;1.80;;;;;;;22.38;54.21;101841.50;4990582;28;20219;-46
2022/07/29 09:24:23;;;;;;;6.80;1.85;;;;;;;22.43;53.79;101847.47;4990501;28;20248;-48
2022/07/29 09:26:48;;;;;;;3.53;1.70;;;;;;;21.81;55.02;101851.78;4979807;28;20347;-48
2022/07/29 09:29:16;;;;;;;5.18;2.05;;;;;;;21.23;56.37;101853.03;4971397;28;20239;-49
2022/07/29 09:31:44;;;;;;;3.88;2.00;;;;;;;21.13;57.62;101855.47;4971681;28;20603;-49
2022/07/29 09:34:12;;;;;;;4.05;1.63;;;;;;;20.83;57.60;101861.09;4971071;28;20181;-49
2022/07/29 09:36:48;;;;;;;5.03;1.77;;;;;;;21.02;56.36;101852.59;4971560;28;20182;-49
2022/07/29 09:39:16;;;;;;;6.82;1.90;;;;;;;21.08;55.90;101854.03;4971643;28;20272;-49
2022/07/29 09:41:54;;;;;;;3.83;1.60;;;;;;;20.94;56.18;101852.22;4971456;28;20197;-48
2022/07/29 09:44:22;;;;;;;4.03;1.73;;;;;;;21.47;56.07;101844.19;4969017;28;20641;-50
2022/07/29 09:47:05;;;;;;;2.80;1.30;;;;;;;21.70;55.28;101839.88;4971690;28;20217;-48
2022/07/29 09:49:57;;;;;;;2.88;1.33;;;;;;;21.67;55.84;101842.81;4971559;28;20182;-48
2022/07/29 09:52:24;;;;;;;5.25;1.67;;;;;;;21.51;56.48;101838.41;4971613;28;20281;-49
2022/07/29 09:54:50;;;;;;;4.85;1.50;;;;;;;21.51;59.15;101845.72;4969478;28;20182;-49
2022/07/29 09:57:27;;;;;;;5.18;1.73;;;;;;;20.55;63.29;101848.34;4969724;28;20201;-48
2022/07/29 10:00:14;;;;;;;7.53;1.88;;;;;;;20.59;63.27;101858.09;4970239;28;20711;-50
2022/07/29 10:02:43;;;;;;;3.65;1.42;;;;;;;20.33;64.47;101863.34;4971612;28;20201;-50
2022/07/29 10:05:27;;;;;;;3.38;1.60;;;;;;;20.38;65.52;101855.75;4971133;28;20181;-49
2022/07/29 10:07:56;;;;;;;6.15;1.70;;;;;;;20.40;65.00;101861.13;4971080;28;20512;-49
2022/07/29 10:10:27;;;;;;;3.70;1.75;;;;;;;20.30;65.54;101863.53;4971440;28;20543;-48
2022/07/29 10:12:53;;;;;;;5.15;2.03;;;;;;;20.70;65.96;101862.88;4971383;28;20189;-48
2022/07/29 10:15:21;;;;;;;7.03;2.08;;;;;;;20.15;66.50;101864.47;4970858;28;20592;-49
2022/07/29 10:17:47;;;;;;;7.18;2.15;;;;;;;20.49;66.19;101865.09;4971182;28;20186;-48
2022/07/29 10:20:14;;;;;;;5.97;2.13;;;;;;;20.14;65.86;101866.34;4969892;28;20181;-50
2022/07/29 10:22:41;;;;;;;5.22;1.98;;;;;;;20.29;65.84;101866.34;4970210;28;20602;-49
2022/07/29 10:25:08;;;;;;;5.30;1.65;;;;;;;20.36;66.06;101863.16;4970953;28;20670;-50
2022/07/29 10:27:35;;;;;;;6.18;1.67;;;;;;;20.25;65.27;101853.91;4970604;28;20197;-49
2022/07/29 10:30:01;;;;;;;5.35;1.80;;;;;;;20.28;65.30;101856.44;4977696;28;20715;-49
2022/07/29 10:32:58;;;;;;;3.08;1.73;;;;;;;20.37;64.15;101853.13;4990711;28;20600;-49
2022/07/29 10:35:42;;;;;;;6.13;1.80;;;;;;;20.28;62.99;101860.03;4990259;28;20176;-49
2022/07/29 10:38:28;;;;;;;4.43;1.80;;;;;;;20.54;64.54;101850.19;4991043;28;20178;-49
2022/07/29 10:43:43;;;;;;;5.10;1.80;;;;;;;20.64;60.98;101855.97;4989956;28;20177;-49
2022/07/29 10:46:10;;;;;;;5.32;1.80;;;;;;;20.67;59.52;101854.91;4989880;28;20188;-49
2022/07/29 10:48:35;;;;;;;3.75;1.88;;;;;;;21.22;59.13;101853.13;4990742;28;20174;-48
2022/07/29 10:51:04;;;;;;;3.47;1.55;;;;;;;21.36;57.35;101848.50;4988547;28;20227;-49
2022/07/29 10:53:51;;;;;;;3.65;1.58;;;;;;;21.31;57.05;101842.47;4989926;28;20178;-48
2022/07/29 10:56:33;;;;;;;3.47;1.25;;;;;;;21.62;56.00;101845.84;4992744;28;20181;-48
2022/07/29 10:59:17;;;;;;;3.97;1.50;;;;;;;21.36;54.05;101834.88;4993609;28;20737;-50
2022/07/29 11:01:43;;;;;;;3.53;1.23;;;;;;;21.28;54.52;101834.50;4992598;28;20208;-49
2022/07/29 11:04:09;;;;;;;2.88;1.50;;;;;;;21.43;54.22;101837.19;4993287;28;20243;-49
2022/07/29 11:07:02;;;;;;;3.50;1.70;;;;;;;21.70;52.36;101838.03;4993921;28;20660;-50
2022/07/29 11:09:30;;;;;;;6.40;1.80;;;;;;;21.85;52.37;101837.97;4993831;28;20176;-50
2022/07/29 11:11:59;;;;;;;3.83;1.40;;;;;;;22.29;51.90;101831.22;4993505;28;20295;-48
2022/07/29 11:15:00;;;;;;;5.45;1.40;;;;;;;21.96;50.74;101838.94;4993367;28;20181;-48
2022/07/29 11:17:26;;;;;;;4.05;1.42;;;;;;;22.06;51.67;101835.56;4993317;28;20172;-49
2022/07/29 11:19:51;;;;;;;3.75;1.40;;;;;;;21.93;52.05;101832.81;4993731;28;20276;-49
2022/07/29 11:22:35;;;;;;;6.10;1.38;;;;;;;22.17;51.90;101827.47;4993691;28;20283;-48
2022/07/29 11:25:17;;;;;;;3.22;1.40;;;;;;;22.16;53.48;101833.94;4992657;28;20192;-48
2022/07/29 11:27:44;;;;;;;4.43;1.45;;;;;;;21.76;54.72;101834.88;4993178;28;20196;-48
2022/07/29 11:30:11;;;;;;;4.50;1.80;;;;;;;21.67;55.27;101840.09;4977563;28;20466;-48
2022/07/29 11:32:44;;;;;;;7.50;1.70;;;;;;;21.71;55.79;101831.63;4974438;28;20268;-50
2022/07/29 11:35:20;;;;;;;4.90;1.67;;;;;;;21.89;56.48;101832.19;4973392;28;20224;-48
2022/07/29 11:37:46;;;;;;;6.10;1.63;;;;;;;21.79;55.54;101828.34;4973514;28;20249;-50
2022/07/29 11:40:13;;;;;;;4.70;1.50;;;;;;;22.05;54.93;101823.78;4974022;28;20679;-48
2022/07/29 11:42:41;;;;;;;4.97;1.95;;;;;;;21.85;55.82;101827.03;4973821;28;20189;-50